createdAt,value
2017-10-29T00:02:06.010Z,12.20
2017-10-29T00:04:33.548Z,12.10
2017-10-29T00:07:01.110Z,12.10
2017-10-29T00:09:37.983Z,12.10
2017-10-29T00:12:06.132Z,11.90
2017-10-29T00:14:33.673Z,12.00
2017-10-29T00:17:01.990Z,12.10
2017-10-29T00:19:29.533Z,12.00
2017-10-29T00:21:57.869Z,12.10
2017-10-29T00:24:25.392Z,12.10
2017-10-29T00:26:52.917Z,12.10
2017-10-29T00:29:20.466Z,12.10
2017-10-29T00:31:47.993Z,12.00
2017-10-29T00:34:15.524Z,12.00
2017-10-29T00:36:43.846Z,12.10
2017-10-29T00:39:11.367Z,12.00
2017-10-29T00:41:38.878Z,12.00
2017-10-29T00:44:07.424Z,12.20
2017-10-29T00:46:34.993Z,12.10
2017-10-29T00:49:02.513Z,12.10
2017-10-29T00:51:30.840Z,12.10
2017-10-29T00:53:58.388Z,12.00
2017-10-29T00:56:25.958Z,12.10
2017-10-29T00:58:53.543Z,12.00
2017-10-29T01:01:21.075Z,11.90
2017-10-29T01:03:49.363Z,11.90
2017-10-29T01:06:16.912Z,11.90
2017-10-29T01:08:44.443Z,12.10
2017-10-29T01:11:11.992Z,12.00
2017-10-29T01:13:39.541Z,11.80
2017-10-29T01:16:07.077Z,11.90
2017-10-29T01:18:34.590Z,12.00
2017-10-29T01:21:02.137Z,12.10
2017-10-29T01:23:30.820Z,12.10
2017-10-29T01:25:58.351Z,12.00
2017-10-29T01:28:26.655Z,12.00
2017-10-29T01:30:54.937Z,12.10
2017-10-29T01:33:22.485Z,12.00
2017-10-29T01:35:50.051Z,11.90
2017-10-29T01:38:17.575Z,11.90
2017-10-29T01:40:45.097Z,12.10
2017-10-29T01:43:12.642Z,12.10
2017-10-29T01:45:40.166Z,12.00
2017-10-29T01:48:07.687Z,12.10
2017-10-29T01:50:36.005Z,12.30
2017-10-29T01:53:03.558Z,12.30
2017-10-29T01:55:31.080Z,12.10
2017-10-29T01:57:58.649Z,12.10
2017-10-29T02:00:26.171Z,12.20
2017-10-29T02:02:53.726Z,12.20
2017-10-29T02:05:21.272Z,12.10
2017-10-29T02:07:48.798Z,12.10
2017-10-29T02:10:16.315Z,12.10
2017-10-29T02:12:44.619Z,12.10
2017-10-29T02:15:12.145Z,12.30
2017-10-29T02:17:39.687Z,12.10
2017-10-29T02:20:07.240Z,12.10
2017-10-29T02:22:34.783Z,12.10
2017-10-29T02:25:02.332Z,12.40
2017-10-29T02:27:29.869Z,12.40
2017-10-29T02:29:57.387Z,12.20
2017-10-29T02:32:25.666Z,12.20
2017-10-29T02:34:54.109Z,12.20
2017-10-29T02:37:22.397Z,12.40
2017-10-29T02:39:49.911Z,12.10
2017-10-29T02:42:18.235Z,12.60
2017-10-29T02:44:45.759Z,12.40
2017-10-29T02:47:13.311Z,12.40
2017-10-29T02:49:40.868Z,12.60
2017-10-29T02:52:08.398Z,12.50
2017-10-29T02:54:35.922Z,12.40
2017-10-29T02:57:03.496Z,12.40
2017-10-29T02:59:31.024Z,12.40
2017-10-29T03:01:58.552Z,12.40
2017-10-29T03:04:26.089Z,12.50
2017-10-29T03:06:53.605Z,12.50
2017-10-29T03:09:21.114Z,12.60
2017-10-29T03:11:48.685Z,12.40
2017-10-29T03:14:16.211Z,12.40
2017-10-29T03:16:43.735Z,12.40
2017-10-29T03:19:11.284Z,12.60
2017-10-29T03:21:38.877Z,12.50
2017-10-29T03:24:07.163Z,12.70
2017-10-29T03:26:34.705Z,12.50
2017-10-29T03:29:02.219Z,12.40
2017-10-29T03:31:29.743Z,12.50
2017-10-29T03:33:57.279Z,12.40
2017-10-29T03:36:24.800Z,12.50
2017-10-29T03:38:52.315Z,12.70
2017-10-29T03:41:20.844Z,12.70
2017-10-29T03:43:48.380Z,12.60
2017-10-29T03:46:15.919Z,12.40
2017-10-29T03:48:43.471Z,12.50
2017-10-29T03:51:11.014Z,12.50
2017-10-29T03:53:38.568Z,12.50
2017-10-29T03:56:06.124Z,12.40
2017-10-29T03:58:33.647Z,12.50
2017-10-29T04:01:01.185Z,12.40
2017-10-29T04:03:28.736Z,12.50
2017-10-29T04:05:56.268Z,12.50
2017-10-29T04:08:23.851Z,12.40
2017-10-29T04:10:52.172Z,12.50
2017-10-29T04:13:19.740Z,12.60
2017-10-29T04:15:47.280Z,12.50
2017-10-29T04:18:14.958Z,12.40
2017-10-29T04:20:42.495Z,12.60
2017-10-29T04:23:10.029Z,12.50
2017-10-29T04:25:37.582Z,12.70
2017-10-29T04:28:05.112Z,12.60
2017-10-29T04:30:32.637Z,12.40
2017-10-29T04:33:00.189Z,12.60
2017-10-29T04:35:27.721Z,12.60
2017-10-29T04:37:55.277Z,12.60
2017-10-29T04:40:22.835Z,12.60
2017-10-29T04:42:50.414Z,12.40
2017-10-29T04:45:18.732Z,12.50
2017-10-29T04:47:46.277Z,12.40
2017-10-29T04:50:13.831Z,12.60
2017-10-29T04:52:41.354Z,12.50
2017-10-29T04:55:08.907Z,12.50
2017-10-29T04:57:36.446Z,12.30
2017-10-29T05:00:03.985Z,12.50
2017-10-29T05:02:31.527Z,12.60
2017-10-29T05:04:59.052Z,12.50
2017-10-29T05:07:26.579Z,12.70
2017-10-29T05:09:54.146Z,12.70
2017-10-29T05:12:21.676Z,12.70
2017-10-29T05:14:49.205Z,12.60
2017-10-29T05:17:17.528Z,12.70
2017-10-29T05:19:45.062Z,12.40
2017-10-29T05:22:12.641Z,12.70
2017-10-29T05:24:40.207Z,12.50
2017-10-29T05:27:08.623Z,12.50
2017-10-29T05:29:36.239Z,12.40
2017-10-29T05:32:03.795Z,12.50
2017-10-29T05:34:31.332Z,12.90
2017-10-29T05:36:58.903Z,12.70
2017-10-29T05:39:26.464Z,12.50
2017-10-29T05:41:54.006Z,12.70
2017-10-29T05:44:21.530Z,12.70
2017-10-29T05:46:49.128Z,12.50
2017-10-29T05:49:17.419Z,12.70
2017-10-29T05:51:44.959Z,12.70
2017-10-29T05:54:12.511Z,12.70
2017-10-29T05:56:40.036Z,12.50
2017-10-29T05:59:07.570Z,12.70
2017-10-29T06:01:35.963Z,12.40
2017-10-29T06:04:03.600Z,12.60
2017-10-29T06:06:31.143Z,12.30
2017-10-29T06:08:58.703Z,12.40
2017-10-29T06:11:26.241Z,12.40
2017-10-29T06:13:53.837Z,12.70
2017-10-29T06:16:21.383Z,12.40
2017-10-29T06:18:48.962Z,12.50
2017-10-29T06:21:16.494Z,12.40
2017-10-29T06:23:44.821Z,12.60
2017-10-29T06:26:12.352Z,12.30
2017-10-29T06:28:39.914Z,12.50
2017-10-29T06:31:07.481Z,12.50
2017-10-29T06:33:35.806Z,12.60
2017-10-29T06:36:03.335Z,12.60
2017-10-29T06:38:30.906Z,12.70
2017-10-29T06:40:58.432Z,12.80
2017-10-29T06:43:25.971Z,12.90
2017-10-29T06:45:53.543Z,12.80
2017-10-29T06:48:21.381Z,12.80
2017-10-29T06:50:48.928Z,12.40
2017-10-29T06:53:16.491Z,12.30
2017-10-29T06:55:44.055Z,12.40
2017-10-29T06:58:12.348Z,12.30
2017-10-29T07:00:39.924Z,12.50
2017-10-29T07:03:07.446Z,12.40
2017-10-29T07:05:35.014Z,12.40
2017-10-29T07:08:02.564Z,12.30
2017-10-29T07:10:30.126Z,12.30
2017-10-29T07:12:57.644Z,12.40
2017-10-29T07:15:25.236Z,12.40
2017-10-29T07:17:53.550Z,12.40
2017-10-29T07:20:21.104Z,12.50
2017-10-29T07:22:48.666Z,12.40
2017-10-29T07:25:16.242Z,12.50
2017-10-29T07:27:49.122Z,12.40
2017-10-29T07:30:16.731Z,12.10
2017-10-29T07:32:44.261Z,12.10
2017-10-29T07:35:11.791Z,12.10
2017-10-29T07:37:39.348Z,12.10
2017-10-29T07:40:06.862Z,12.00
2017-10-29T07:42:34.383Z,12.10
2017-10-29T07:45:01.932Z,12.10
2017-10-29T07:47:29.473Z,12.20
2017-10-29T07:49:57.007Z,12.30
2017-10-29T07:52:24.579Z,12.30
2017-10-29T07:54:53.040Z,12.30
2017-10-29T07:57:20.559Z,12.40
2017-10-29T07:59:48.869Z,12.50
2017-10-29T08:02:16.395Z,12.30
2017-10-29T08:04:43.932Z,12.40
2017-10-29T08:07:11.542Z,12.40
2017-10-29T08:09:39.062Z,12.40
2017-10-29T08:12:06.596Z,12.40
2017-10-29T08:14:34.264Z,12.60
2017-10-29T08:17:01.890Z,12.40
2017-10-29T08:19:29.447Z,12.40
2017-10-29T08:21:57.058Z,12.40
2017-10-29T08:24:25.017Z,12.40
2017-10-29T08:26:52.573Z,12.50
2017-10-29T08:29:20.312Z,12.40
2017-10-29T08:31:47.919Z,12.50
2017-10-29T08:34:16.430Z,12.50
2017-10-29T08:36:44.005Z,12.60
2017-10-29T08:39:11.595Z,12.70
2017-10-29T08:41:39.120Z,12.90
2017-10-29T08:44:07.505Z,12.80
2017-10-29T08:46:35.038Z,12.70
2017-10-29T08:49:03.356Z,12.90
2017-10-29T08:51:30.964Z,12.80
2017-10-29T08:53:58.526Z,12.90
2017-10-29T08:56:26.091Z,12.80
2017-10-29T08:58:53.668Z,12.80
2017-10-29T09:01:22.157Z,13.00
2017-10-29T09:03:49.908Z,12.80
2017-10-29T09:06:17.492Z,13.10
2017-10-29T09:08:45.270Z,13.10
2017-10-29T09:11:12.947Z,13.60
2017-10-29T09:13:40.648Z,13.70
2017-10-29T09:16:09.250Z,14.00
2017-10-29T09:18:37.640Z,14.30
2017-10-29T09:21:05.295Z,13.90
2017-10-29T09:23:32.952Z,14.20
2017-10-29T09:26:00.654Z,14.20
2017-10-29T09:28:29.047Z,14.30
2017-10-29T09:30:56.673Z,14.00
2017-10-29T09:33:24.552Z,14.20
2017-10-29T09:35:52.199Z,14.40
2017-10-29T09:38:19.868Z,14.10
2017-10-29T09:40:47.537Z,14.60
2017-10-29T09:43:15.099Z,14.90
2017-10-29T09:45:43.400Z,14.50
2017-10-29T09:48:10.944Z,14.50
2017-10-29T09:50:38.556Z,14.60
2017-10-29T09:53:06.848Z,14.00
2017-10-29T09:55:34.380Z,14.20
2017-10-29T09:58:01.952Z,14.00
2017-10-29T10:00:29.510Z,13.50
2017-10-29T10:02:57.045Z,13.70
2017-10-29T10:05:24.617Z,13.70
2017-10-29T10:07:52.652Z,13.90
2017-10-29T10:10:20.192Z,13.90
2017-10-29T10:12:48.560Z,13.70
2017-10-29T10:15:16.129Z,13.70
2017-10-29T10:17:43.665Z,13.50
2017-10-29T10:20:11.265Z,13.60
2017-10-29T10:22:38.784Z,13.50
2017-10-29T10:25:07.089Z,14.50
2017-10-29T10:27:34.664Z,14.20
2017-10-29T10:30:02.546Z,14.60
2017-10-29T10:32:30.119Z,14.50
2017-10-29T10:34:57.695Z,14.30
2017-10-29T10:37:25.226Z,14.50
2017-10-29T10:39:52.770Z,14.30
2017-10-29T10:42:20.322Z,14.20
2017-10-29T10:44:47.866Z,14.00
2017-10-29T10:47:16.352Z,14.40
2017-10-29T10:49:44.595Z,15.00
2017-10-29T10:52:12.138Z,15.10
2017-10-29T10:54:39.671Z,15.40
2017-10-29T10:57:07.251Z,15.30
2017-10-29T10:59:34.814Z,14.80
2017-10-29T11:02:03.502Z,14.70
2017-10-29T11:04:40.934Z,14.60
2017-10-29T11:07:08.496Z,14.60
2017-10-29T11:09:36.824Z,14.90
2017-10-29T11:12:04.395Z,14.90
2017-10-29T11:14:31.955Z,15.00
2017-10-29T11:16:59.470Z,14.50
2017-10-29T11:19:27.036Z,14.30
2017-10-29T11:21:54.567Z,13.80
2017-10-29T11:24:22.098Z,13.60
2017-10-29T11:26:49.679Z,13.20
2017-10-29T11:29:17.207Z,13.20
2017-10-29T11:31:44.743Z,13.50
2017-10-29T11:34:12.293Z,13.20
2017-10-29T11:36:39.820Z,13.10
2017-10-29T11:39:07.370Z,13.40
2017-10-29T11:41:34.944Z,13.90
2017-10-29T11:44:02.465Z,14.00
2017-10-29T11:46:30.112Z,14.60
2017-10-29T11:48:57.756Z,14.40
2017-10-29T11:51:25.294Z,14.60
2017-10-29T11:53:53.611Z,14.70
2017-10-29T11:56:21.283Z,15.00
2017-10-29T11:58:48.831Z,15.20
2017-10-29T12:01:16.353Z,15.40
2017-10-29T12:03:43.926Z,15.50
2017-10-29T12:06:11.460Z,15.70
2017-10-29T12:08:39.097Z,15.60
2017-10-29T12:11:06.951Z,15.40
2017-10-29T12:13:34.602Z,15.10
2017-10-29T12:16:02.205Z,14.90
2017-10-29T12:18:29.794Z,14.60
2017-10-29T12:20:57.345Z,14.20
2017-10-29T12:23:24.920Z,14.40
2017-10-29T12:25:52.479Z,14.40
2017-10-29T12:28:20.055Z,14.30
2017-10-29T12:30:47.626Z,14.30
2017-10-29T12:33:15.478Z,14.20
2017-10-29T12:35:43.020Z,14.30
2017-10-29T12:38:10.561Z,14.60
2017-10-29T12:40:38.259Z,14.90
2017-10-29T12:43:05.787Z,14.60
2017-10-29T12:45:33.343Z,14.50
2017-10-29T12:48:00.907Z,14.40
2017-10-29T12:50:29.231Z,15.00
2017-10-29T12:52:56.763Z,15.00
2017-10-29T12:55:25.093Z,15.30
2017-10-29T12:57:56.547Z,15.00
2017-10-29T13:00:24.119Z,14.90
2017-10-29T13:02:51.677Z,14.90
2017-10-29T13:05:19.221Z,14.40
2017-10-29T13:07:46.781Z,13.60
2017-10-29T13:10:14.424Z,13.80
2017-10-29T13:12:41.998Z,13.90
2017-10-29T13:15:10.312Z,13.50
2017-10-29T13:17:37.853Z,13.50
2017-10-29T13:20:05.385Z,13.40
2017-10-29T13:22:32.957Z,13.50
2017-10-29T13:25:00.488Z,13.40
2017-10-29T13:27:28.026Z,12.80
2017-10-29T13:29:55.596Z,12.80
2017-10-29T13:32:23.219Z,12.70
2017-10-29T13:34:50.844Z,13.10
2017-10-29T13:37:18.413Z,12.80
2017-10-29T13:39:45.958Z,12.90
2017-10-29T13:42:13.512Z,13.00
2017-10-29T13:44:41.064Z,12.60
2017-10-29T13:47:08.601Z,12.80
2017-10-29T13:49:36.162Z,12.60
2017-10-29T13:52:03.715Z,12.10
2017-10-29T13:54:31.247Z,12.20
2017-10-29T13:56:59.878Z,12.30
2017-10-29T13:59:27.436Z,12.30
2017-10-29T14:01:55.003Z,12.10
2017-10-29T14:04:22.640Z,12.10
2017-10-29T14:06:50.259Z,12.10
2017-10-29T14:09:17.796Z,12.30
2017-10-29T14:11:47.215Z,12.00
2017-10-29T14:14:16.700Z,12.10
2017-10-29T14:16:45.947Z,12.30
2017-10-29T14:19:15.274Z,12.10
2017-10-29T14:21:45.103Z,12.10
2017-10-29T14:26:51.891Z,12.10
2017-10-29T14:29:19.689Z,12.10
2017-10-29T14:31:47.672Z,12.10
2017-10-29T14:34:17.991Z,12.30
2017-10-29T14:36:47.277Z,12.00
2017-10-29T14:39:15.005Z,12.10
2017-10-29T14:41:43.805Z,12.40
2017-10-29T14:44:11.449Z,12.60
2017-10-29T14:46:40.257Z,12.10
2017-10-29T14:49:07.833Z,12.20
2017-10-29T14:51:35.419Z,12.30
2017-10-29T14:54:02.998Z,12.10
2017-10-29T14:56:30.819Z,12.10
2017-10-29T14:58:58.362Z,12.00
2017-10-29T15:01:25.953Z,12.00
2017-10-29T15:03:54.022Z,12.00
2017-10-29T15:06:21.552Z,12.10
2017-10-29T15:08:49.084Z,12.10
2017-10-29T15:11:16.725Z,12.10
2017-10-29T15:13:44.309Z,12.00
2017-10-29T15:16:11.865Z,11.90
2017-10-29T15:18:39.446Z,12.10
2017-10-29T15:21:07.025Z,11.90
2017-10-29T15:23:34.641Z,11.80
2017-10-29T15:26:02.208Z,11.80
2017-10-29T15:28:29.856Z,11.80
2017-10-29T15:30:57.467Z,11.60
2017-10-29T15:33:25.271Z,11.50
2017-10-29T15:35:52.825Z,11.50
2017-10-29T15:38:21.556Z,11.40
2017-10-29T15:40:49.116Z,11.40
2017-10-29T15:43:17.288Z,11.60
2017-10-29T15:45:46.198Z,11.40
2017-10-29T15:48:14.802Z,11.20
2017-10-29T15:50:53.056Z,11.30
2017-10-29T15:53:21.858Z,11.00
2017-10-29T15:55:49.903Z,11.00
2017-10-29T15:58:18.021Z,11.10
2017-10-29T16:00:45.937Z,11.00
2017-10-29T16:03:14.182Z,11.10
2017-10-29T16:05:42.361Z,11.00
2017-10-29T16:08:10.295Z,10.80
2017-10-29T16:10:38.024Z,11.00
2017-10-29T16:13:06.385Z,10.70
2017-10-29T16:15:38.538Z,10.80
2017-10-29T16:18:09.735Z,10.60
2017-10-29T16:20:39.063Z,10.70
2017-10-29T16:23:08.424Z,10.50
2017-10-29T16:25:37.860Z,10.80
2017-10-29T16:28:07.476Z,10.60
2017-10-29T16:30:37.144Z,10.60
2017-10-29T16:33:06.896Z,10.50
2017-10-29T16:35:39.442Z,10.50
2017-10-29T16:38:10.902Z,10.40
2017-10-29T16:40:41.996Z,10.50
2017-10-29T16:43:12.563Z,10.40
2017-10-29T16:45:42.405Z,10.10
2017-10-29T16:48:12.521Z,10.30
2017-10-29T16:50:46.696Z,10.30
2017-10-29T16:53:18.900Z,10.40
2017-10-29T16:55:49.442Z,10.20
2017-10-29T16:58:19.175Z,10.40
2017-10-29T17:00:50.768Z,10.10
2017-10-29T17:03:22.845Z,10.40
2017-10-29T17:05:52.562Z,10.00
2017-10-29T17:08:23.678Z,10.20
2017-10-29T17:10:53.520Z,10.40
2017-10-29T17:13:23.595Z,9.90
2017-10-29T17:15:54.856Z,10.20
2017-10-29T17:18:24.026Z,10.20
2017-10-29T17:20:54.923Z,10.20
2017-10-29T17:23:24.744Z,10.20
2017-10-29T17:25:57.940Z,10.10
2017-10-29T17:28:28.424Z,10.10
2017-10-29T17:30:58.951Z,10.10
2017-10-29T17:33:27.190Z,9.80
2017-10-29T17:35:56.586Z,9.80
2017-10-29T17:38:24.777Z,10.10
2017-10-29T17:40:52.523Z,9.90
2017-10-29T17:43:20.542Z,10.10
2017-10-29T17:45:48.831Z,9.80
2017-10-29T17:48:17.532Z,9.50
2017-10-29T17:50:47.263Z,9.80
2017-10-29T17:53:16.900Z,9.50
2017-10-29T17:55:45.723Z,9.80
2017-10-29T17:58:14.014Z,9.60
2017-10-29T18:00:42.118Z,9.80
2017-10-29T18:03:10.502Z,9.70
2017-10-29T18:05:38.592Z,9.50
2017-10-29T18:08:06.769Z,9.80
2017-10-29T18:10:35.556Z,9.60
2017-10-29T18:13:03.747Z,9.70
2017-10-29T18:15:31.769Z,9.70
2017-10-29T18:18:00.143Z,9.80
2017-10-29T18:20:28.024Z,9.80
2017-10-29T18:22:55.791Z,10.00
2017-10-29T18:25:23.724Z,9.90
2017-10-29T18:27:51.542Z,9.70
2017-10-29T18:30:20.194Z,9.70
2017-10-29T18:32:48.789Z,9.80
2017-10-29T18:35:17.501Z,9.80
2017-10-29T18:37:45.196Z,9.70
2017-10-29T18:40:13.835Z,9.40
2017-10-29T18:42:41.902Z,9.50
2017-10-29T18:45:09.693Z,9.40
2017-10-29T18:47:37.383Z,9.60
2017-10-29T18:50:05.084Z,9.40
2017-10-29T18:52:33.854Z,9.70
2017-10-29T18:55:02.125Z,9.70
2017-10-29T18:57:32.217Z,9.60
2017-10-29T19:00:00.444Z,9.20
2017-10-29T19:02:29.199Z,9.60
2017-10-29T19:04:58.407Z,9.60
2017-10-29T19:07:26.622Z,9.70
2017-10-29T19:09:54.272Z,9.40
2017-10-29T19:12:21.923Z,9.50
2017-10-29T19:14:49.683Z,9.50
2017-10-29T19:17:18.283Z,9.40
2017-10-29T19:19:46.857Z,9.60
2017-10-29T19:22:15.619Z,9.40
2017-10-29T19:24:43.401Z,9.30
2017-10-29T19:27:11.220Z,9.50
2017-10-29T19:29:39.058Z,9.60
2017-10-29T19:32:07.564Z,9.80
2017-10-29T19:34:36.111Z,9.90
2017-10-29T19:37:04.856Z,9.80
2017-10-29T19:39:32.532Z,9.60
2017-10-29T19:42:01.370Z,9.80
2017-10-29T19:44:29.310Z,9.80
2017-10-29T19:46:56.892Z,9.60
2017-10-29T19:49:24.707Z,9.70
2017-10-29T19:51:52.424Z,9.80
2017-10-29T19:54:20.806Z,9.60
2017-10-29T19:56:49.791Z,9.40
2017-10-29T19:59:17.689Z,9.60
2017-10-29T20:01:45.969Z,9.20
2017-10-29T20:04:14.379Z,9.20
2017-10-29T20:06:42.144Z,9.50
2017-10-29T20:09:09.958Z,9.50
2017-10-29T20:11:37.844Z,9.50
2017-10-29T20:14:05.498Z,9.20
2017-10-29T20:16:33.967Z,9.40
2017-10-29T20:19:01.732Z,9.40
2017-10-29T20:21:29.565Z,9.50
2017-10-29T20:23:57.227Z,9.60
2017-10-29T20:26:25.280Z,9.30
2017-10-29T20:28:53.046Z,9.20
2017-10-29T20:31:20.608Z,9.10
2017-10-29T20:33:49.343Z,9.30
2017-10-29T20:36:17.760Z,9.30
2017-10-29T20:38:46.383Z,9.40
2017-10-29T20:41:14.142Z,9.30
2017-10-29T20:43:42.179Z,9.20
2017-10-29T20:46:10.962Z,9.50
2017-10-29T20:48:38.663Z,9.30
2017-10-29T20:51:06.259Z,9.50
2017-10-29T20:53:34.210Z,9.20
2017-10-29T20:56:02.692Z,9.10
2017-10-29T20:58:30.346Z,9.10
2017-10-29T21:00:57.980Z,9.20
2017-10-29T21:03:25.582Z,9.20
2017-10-29T21:05:53.195Z,9.20
2017-10-29T21:08:20.864Z,9.50
2017-10-29T21:10:49.375Z,9.40
2017-10-29T21:13:17.418Z,9.10
2017-10-29T21:15:46.843Z,8.90
2017-10-29T21:18:15.248Z,8.90
2017-10-29T21:20:43.191Z,8.90
2017-10-29T21:23:10.738Z,8.90
2017-10-29T21:25:38.284Z,8.90
2017-10-29T21:28:05.894Z,9.00
2017-10-29T21:30:34.251Z,9.10
2017-10-29T21:33:02.672Z,8.90
2017-10-29T21:35:30.305Z,8.80
2017-10-29T21:37:57.923Z,8.90
2017-10-29T21:40:26.423Z,8.60
2017-10-29T21:42:54.737Z,8.90
2017-10-29T21:45:22.461Z,8.80
2017-10-29T21:47:50.110Z,8.90
2017-10-29T21:50:17.658Z,8.80
2017-10-29T21:52:45.188Z,8.80
2017-10-29T21:55:13.136Z,8.60
2017-10-29T21:57:40.807Z,8.60
2017-10-29T22:00:09.185Z,8.50
2017-10-29T22:02:37.122Z,8.50
2017-10-29T22:05:04.793Z,8.60
2017-10-29T22:07:33.598Z,8.40
2017-10-29T22:10:01.725Z,8.40
2017-10-29T22:12:29.715Z,8.30
2017-10-29T22:14:57.593Z,8.20
2017-10-29T22:17:25.800Z,8.10
2017-10-29T22:19:53.572Z,8.00
2017-10-29T22:22:24.428Z,8.30
2017-10-29T22:24:52.846Z,8.50
2017-10-29T22:27:20.483Z,8.10
2017-10-29T22:29:48.230Z,8.20
2017-10-29T22:32:16.140Z,8.50
2017-10-29T22:34:43.839Z,8.50
2017-10-29T22:37:12.934Z,8.30
2017-10-29T22:39:40.671Z,8.30
2017-10-29T22:42:08.493Z,8.40
2017-10-29T22:44:36.174Z,8.50
2017-10-29T22:47:03.805Z,8.30
2017-10-29T22:49:31.812Z,8.30
2017-10-29T22:51:59.360Z,8.40
2017-10-29T22:54:27.002Z,8.50
2017-10-29T22:56:54.706Z,8.30
2017-10-29T22:59:22.745Z,8.50
2017-10-29T23:01:50.360Z,8.50
2017-10-29T23:04:19.472Z,8.30
2017-10-29T23:06:47.009Z,8.70
2017-10-29T23:09:22.324Z,8.50
2017-10-29T23:11:49.858Z,8.60
2017-10-29T23:14:17.465Z,8.30
2017-10-29T23:16:45.128Z,8.20
2017-10-29T23:19:14.996Z,8.40
2017-10-29T23:21:44.831Z,8.60
2017-10-29T23:24:14.551Z,8.40
2017-10-29T23:26:44.563Z,8.20
2017-10-29T23:29:14.505Z,8.20
2017-10-29T23:31:45.351Z,8.50
2017-10-29T23:34:15.481Z,8.60
2017-10-29T23:36:48.906Z,8.40
2017-10-29T23:39:19.993Z,8.60
2017-10-29T23:41:50.056Z,8.70
2017-10-29T23:44:20.490Z,8.40
2017-10-29T23:46:50.753Z,8.50
2017-10-29T23:49:23.899Z,8.30
2017-10-29T23:51:51.716Z,8.70
2017-10-29T23:54:21.812Z,8.30
2017-10-29T23:56:51.993Z,8.50
2017-10-29T23:59:22.583Z,8.40
